sensor_id;sensor_type;location;lat;lon;timestamp;pressure;altitude;pressure_sealevel;temperature;humidity
28004;BME280;15330;51.234;6.754;2023-03-31T00:00:25;100052.13;;;11.27;100.00
28004;BME280;15330;51.234;6.754;2023-03-31T00:02:51;100041.78;;;11.24;100.00
28004;BME280;15330;51.234;6.754;2023-03-31T00:05:18;100037.53;;;11.30;100.00
28004;BME280;15330;51.234;6.754;2023-03-31T00:07:46;100036.78;;;11.36;100.00
28004;BME280;15330;51.234;6.754;2023-03-31T00:10:13;100031.66;;;11.20;100.00
28004;BME280;15330;51.234;6.754;2023-03-31T00:12:38;100033.94;;;11.23;100.00
28004;BME280;15330;51.234;6.754;2023-03-31T00:15:04;100031.25;;;11.23;100.00
28004;BME280;15330;51.234;6.754;2023-03-31T00:17:30;100027.75;;;11.22;100.00
28004;BME280;15330;51.234;6.754;2023-03-31T00:19:57;100023.78;;;11.18;100.00
28004;BME280;15330;51.234;6.754;2023-03-31T00:22:25;100018.44;;;11.18;100.00
28004;BME280;15330;51.234;6.754;2023-03-31T00:24:52;100021.66;;;11.28;100.00
28004;BME280;15330;51.234;6.754;2023-03-31T00:27:17;100010.94;;;11.28;100.00
28004;BME280;15330;51.234;6.754;2023-03-31T00:29:43;100003.94;;;11.27;100.00
28004;BME280;15330;51.234;6.754;2023-03-31T00:32:10;100002.81;;;11.22;100.00
28004;BME280;15330;51.234;6.754;2023-03-31T00:34:36;99986.22;;;11.26;100.00
28004;BME280;15330;51.234;6.754;2023-03-31T00:37:02;99974.13;;;11.30;100.00
28004;BME280;15330;51.234;6.754;2023-03-31T00:39:28;99976.88;;;11.22;100.00
28004;BME280;15330;51.234;6.754;2023-03-31T00:41:57;99970.13;;;11.26;100.00
28004;BME280;15330;51.234;6.754;2023-03-31T00:44:23;99953.78;;;11.21;100.00
28004;BME280;15330;51.234;6.754;2023-03-31T00:46:56;99952.16;;;11.20;100.00
28004;BME280;15330;51.234;6.754;2023-03-31T00:52:21;99933.50;;;11.27;100.00
28004;BME280;15330;51.234;6.754;2023-03-31T00:54:55;99925.47;;;11.27;100.00
28004;BME280;15330;51.234;6.754;2023-03-31T00:57:23;99928.91;;;11.21;100.00
28004;BME280;15330;51.234;6.754;2023-03-31T00:59:54;99920.28;;;11.25;100.00
28004;BME280;15330;51.234;6.754;2023-03-31T01:02:22;99921.88;;;11.20;100.00
28004;BME280;15330;51.234;6.754;2023-03-31T01:04:54;99917.91;;;11.30;100.00
28004;BME280;15330;51.234;6.754;2023-03-31T01:07:25;99913.22;;;11.18;100.00
28004;BME280;15330;51.234;6.754;2023-03-31T01:09:57;99913.28;;;11.24;100.00
28004;BME280;15330;51.234;6.754;2023-03-31T01:12:25;99903.41;;;11.25;100.00
28004;BME280;15330;51.234;6.754;2023-03-31T01:14:51;99909.13;;;11.22;100.00
28004;BME280;15330;51.234;6.754;2023-03-31T01:17:19;99895.03;;;11.13;100.00
28004;BME280;15330;51.234;6.754;2023-03-31T01:26:00;99874.19;;;11.09;100.00
28004;BME280;15330;51.234;6.754;2023-03-31T01:43:21;99855.31;;;10.95;100.00
28004;BME280;15330;51.234;6.754;2023-03-31T01:46:03;99850.72;;;10.89;100.00
28004;BME280;15330;51.234;6.754;2023-03-31T01:49:32;99852.13;;;10.85;100.00
28004;BME280;15330;51.234;6.754;2023-03-31T01:51:43;99838.56;;;10.87;100.00
28004;BME280;15330;51.234;6.754;2023-03-31T01:56:48;99831.59;;;10.92;100.00
28004;BME280;15330;51.234;6.754;2023-03-31T01:59:21;99829.94;;;10.91;100.00
28004;BME280;15330;51.234;6.754;2023-03-31T02:02:01;99834.47;;;10.91;100.00
28004;BME280;15330;51.234;6.754;2023-03-31T02:04:40;99819.47;;;10.90;100.00
28004;BME280;15330;51.234;6.754;2023-03-31T02:07:13;99820.00;;;10.85;100.00
28004;BME280;15330;51.234;6.754;2023-03-31T02:09:44;99810.81;;;10.73;100.00
28004;BME280;15330;51.234;6.754;2023-03-31T02:12:12;99800.44;;;10.85;100.00
28004;BME280;15330;51.234;6.754;2023-03-31T02:14:42;99808.00;;;10.81;100.00
28004;BME280;15330;51.234;6.754;2023-03-31T02:17:14;99794.03;;;10.79;100.00
28004;BME280;15330;51.234;6.754;2023-03-31T02:19:44;99795.03;;;10.78;100.00
28004;BME280;15330;51.234;6.754;2023-03-31T02:22:15;99786.56;;;10.75;100.00
28004;BME280;15330;51.234;6.754;2023-03-31T02:24:44;99782.88;;;10.76;100.00
28004;BME280;15330;51.234;6.754;2023-03-31T02:27:34;99764.28;;;10.89;100.00
28004;BME280;15330;51.234;6.754;2023-03-31T02:30:00;99755.25;;;10.90;100.00
28004;BME280;15330;51.234;6.754;2023-03-31T02:32:34;99739.38;;;10.88;100.00
28004;BME280;15330;51.234;6.754;2023-03-31T02:35:01;99728.50;;;10.90;100.00
28004;BME280;15330;51.234;6.754;2023-03-31T02:37:28;99730.53;;;10.88;100.00
28004;BME280;15330;51.234;6.754;2023-03-31T02:39:57;99717.34;;;10.86;100.00
28004;BME280;15330;51.234;6.754;2023-03-31T02:42:23;99703.69;;;10.81;100.00
28004;BME280;15330;51.234;6.754;2023-03-31T02:44:50;99698.00;;;10.91;100.00
28004;BME280;15330;51.234;6.754;2023-03-31T02:47:17;99687.72;;;10.88;100.00
28004;BME280;15330;51.234;6.754;2023-03-31T02:49:54;99681.13;;;10.90;100.00
28004;BME280;15330;51.234;6.754;2023-03-31T02:52:34;99669.63;;;10.90;100.00
28004;BME280;15330;51.234;6.754;2023-03-31T03:13:50;99612.16;;;10.86;100.00
28004;BME280;15330;51.234;6.754;2023-03-31T03:18:56;99611.56;;;10.90;100.00
28004;BME280;15330;51.234;6.754;2023-03-31T03:21:22;99601.50;;;10.92;100.00
28004;BME280;15330;51.234;6.754;2023-03-31T03:23:48;99585.25;;;10.94;100.00
28004;BME280;15330;51.234;6.754;2023-03-31T03:26:13;99588.31;;;10.91;100.00
28004;BME280;15330;51.234;6.754;2023-03-31T03:28:38;99590.38;;;10.89;100.00
28004;BME280;15330;51.234;6.754;2023-03-31T03:31:03;99589.75;;;10.87;100.00
28004;BME280;15330;51.234;6.754;2023-03-31T03:33:30;99574.72;;;10.86;100.00
28004;BME280;15330;51.234;6.754;2023-03-31T03:35:55;99568.38;;;10.93;100.00
28004;BME280;15330;51.234;6.754;2023-03-31T03:38:20;99553.75;;;10.89;100.00
28004;BME280;15330;51.234;6.754;2023-03-31T03:40:46;99567.72;;;10.85;100.00
28004;BME280;15330;51.234;6.754;2023-03-31T03:43:11;99571.84;;;10.87;100.00
28004;BME280;15330;51.234;6.754;2023-03-31T03:45:37;99581.34;;;10.90;100.00
28004;BME280;15330;51.234;6.754;2023-03-31T03:48:02;99562.38;;;10.91;100.00
28004;BME280;15330;51.234;6.754;2023-03-31T03:50:27;99540.13;;;10.84;100.00
28004;BME280;15330;51.234;6.754;2023-03-31T03:52:53;99533.56;;;10.87;100.00
28004;BME280;15330;51.234;6.754;2023-03-31T03:55:18;99521.44;;;10.91;100.00
28004;BME280;15330;51.234;6.754;2023-03-31T03:57:43;99511.91;;;10.82;100.00
28004;BME280;15330;51.234;6.754;2023-03-31T04:00:09;99509.03;;;10.83;100.00
28004;BME280;15330;51.234;6.754;2023-03-31T04:02:38;99509.84;;;10.77;100.00
28004;BME280;15330;51.234;6.754;2023-03-31T04:05:04;99503.06;;;10.81;100.00
28004;BME280;15330;51.234;6.754;2023-03-31T04:07:29;99508.41;;;10.81;100.00
28004;BME280;15330;51.234;6.754;2023-03-31T04:09:54;99517.22;;;10.75;100.00
28004;BME280;15330;51.234;6.754;2023-03-31T04:12:20;99514.00;;;10.86;100.00
28004;BME280;15330;51.234;6.754;2023-03-31T04:14:45;99509.25;;;10.82;100.00
28004;BME280;15330;51.234;6.754;2023-03-31T04:17:10;99499.38;;;10.82;100.00
28004;BME280;15330;51.234;6.754;2023-03-31T04:19:40;99489.09;;;10.86;100.00
28004;BME280;15330;51.234;6.754;2023-03-31T04:22:06;99490.47;;;10.75;100.00
28004;BME280;15330;51.234;6.754;2023-03-31T04:24:36;99486.47;;;10.92;100.00
28004;BME280;15330;51.234;6.754;2023-03-31T04:27:03;99474.91;;;10.85;100.00
28004;BME280;15330;51.234;6.754;2023-03-31T04:29:31;99472.66;;;10.89;100.00
28004;BME280;15330;51.234;6.754;2023-03-31T04:31:58;99464.41;;;10.90;100.00
28004;BME280;15330;51.234;6.754;2023-03-31T04:34:25;99450.44;;;10.88;100.00
28004;BME280;15330;51.234;6.754;2023-03-31T04:36:59;99435.00;;;10.90;100.00
28004;BME280;15330;51.234;6.754;2023-03-31T04:39:27;99429.00;;;10.82;100.00
28004;BME280;15330;51.234;6.754;2023-03-31T04:41:55;99415.41;;;10.77;100.00
28004;BME280;15330;51.234;6.754;2023-03-31T04:44:21;99405.47;;;10.71;100.00
28004;BME280;15330;51.234;6.754;2023-03-31T04:46:46;99397.91;;;10.81;100.00
28004;BME280;15330;51.234;6.754;2023-03-31T04:49:12;99390.69;;;10.68;100.00
28004;BME280;15330;51.234;6.754;2023-03-31T04:51:37;99383.50;;;10.75;100.00
28004;BME280;15330;51.234;6.754;2023-03-31T04:54:03;99379.72;;;10.63;100.00
28004;BME280;15330;51.234;6.754;2023-03-31T04:56:28;99372.56;;;10.70;100.00
28004;BME280;15330;51.234;6.754;2023-03-31T04:58:53;99369.06;;;10.70;100.00
28004;BME280;15330;51.234;6.754;2023-03-31T05:01:19;99361.84;;;10.63;100.00
28004;BME280;15330;51.234;6.754;2023-03-31T05:03:45;99350.56;;;10.68;100.00
28004;BME280;15330;51.234;6.754;2023-03-31T05:06:13;99352.16;;;10.56;100.00
28004;BME280;15330;51.234;6.754;2023-03-31T05:08:39;99344.91;;;11.04;100.00
28004;BME280;15330;51.234;6.754;2023-03-31T05:11:04;99337.06;;;11.02;100.00
28004;BME280;15330;51.234;6.754;2023-03-31T05:13:31;99340.97;;;10.87;100.00
28004;BME280;15330;51.234;6.754;2023-03-31T05:15:56;99341.09;;;10.72;100.00
28004;BME280;15330;51.234;6.754;2023-03-31T05:18:21;99339.06;;;10.74;100.00
28004;BME280;15330;51.234;6.754;2023-03-31T05:20:47;99310.22;;;10.63;100.00
28004;BME280;15330;51.234;6.754;2023-03-31T05:23:13;99322.81;;;10.76;100.00
28004;BME280;15330;51.234;6.754;2023-03-31T05:25:38;99309.81;;;10.73;100.00
28004;BME280;15330;51.234;6.754;2023-03-31T05:28:07;99312.31;;;10.74;100.00
28004;BME280;15330;51.234;6.754;2023-03-31T05:30:32;99302.25;;;10.83;100.00
28004;BME280;15330;51.234;6.754;2023-03-31T05:32:58;99289.63;;;10.63;100.00
28004;BME280;15330;51.234;6.754;2023-03-31T05:35:23;99301.59;;;10.68;100.00
28004;BME280;15330;51.234;6.754;2023-03-31T05:37:49;99302.44;;;10.75;100.00
28004;BME280;15330;51.234;6.754;2023-03-31T05:40:15;99302.03;;;10.78;100.00
28004;BME280;15330;51.234;6.754;2023-03-31T05:42:40;99301.84;;;10.86;100.00
28004;BME280;15330;51.234;6.754;2023-03-31T05:45:06;99293.38;;;10.76;100.00
28004;BME280;15330;51.234;6.754;2023-03-31T05:47:32;99291.34;;;10.78;100.00
28004;BME280;15330;51.234;6.754;2023-03-31T05:49:57;99278.81;;;10.85;100.00
28004;BME280;15330;51.234;6.754;2023-03-31T05:52:22;99280.66;;;10.91;100.00
28004;BME280;15330;51.234;6.754;2023-03-31T05:54:48;99281.66;;;10.83;100.00
28004;BME280;15330;51.234;6.754;2023-03-31T05:57:13;99267.06;;;10.79;100.00
28004;BME280;15330;51.234;6.754;2023-03-31T05:59:39;99267.88;;;10.80;100.00
28004;BME280;15330;51.234;6.754;2023-03-31T06:02:06;99265.81;;;10.82;100.00
28004;BME280;15330;51.234;6.754;2023-03-31T06:04:32;99250.16;;;10.72;100.00
28004;BME280;15330;51.234;6.754;2023-03-31T06:06:58;99259.47;;;10.89;100.00
28004;BME280;15330;51.234;6.754;2023-03-31T06:09:24;99259.25;;;10.84;100.00
28004;BME280;15330;51.234;6.754;2023-03-31T06:11:50;99262.56;;;10.86;100.00
28004;BME280;15330;51.234;6.754;2023-03-31T06:14:15;99252.63;;;10.74;100.00
28004;BME280;15330;51.234;6.754;2023-03-31T06:16:41;99255.31;;;10.80;100.00
28004;BME280;15330;51.234;6.754;2023-03-31T06:19:06;99250.16;;;10.65;100.00
28004;BME280;15330;51.234;6.754;2023-03-31T06:21:32;99247.06;;;10.62;100.00
28004;BME280;15330;51.234;6.754;2023-03-31T06:23:58;99238.25;;;10.75;100.00
28004;BME280;15330;51.234;6.754;2023-03-31T06:26:25;99241.94;;;10.67;100.00
28004;BME280;15330;51.234;6.754;2023-03-31T06:28:51;99239.06;;;10.69;100.00
28004;BME280;15330;51.234;6.754;2023-03-31T06:31:19;99239.03;;;10.62;100.00
28004;BME280;15330;51.234;6.754;2023-03-31T06:33:45;99239.88;;;10.69;100.00
28004;BME280;15330;51.234;6.754;2023-03-31T06:39:39;99232.03;;;10.61;100.00
28004;BME280;15330;51.234;6.754;2023-03-31T06:52:00;99226.88;;;10.46;100.00
28004;BME280;15330;51.234;6.754;2023-03-31T06:54:25;99229.53;;;10.53;100.00
28004;BME280;15330;51.234;6.754;2023-03-31T06:56:50;99226.69;;;10.54;100.00
28004;BME280;15330;51.234;6.754;2023-03-31T06:59:16;99223.78;;;10.49;100.00
28004;BME280;15330;51.234;6.754;2023-03-31T07:01:41;99219.88;;;10.52;100.00
28004;BME280;15330;51.234;6.754;2023-03-31T07:04:07;99221.31;;;10.48;100.00
28004;BME280;15330;51.234;6.754;2023-03-31T07:06:33;99213.69;;;10.45;100.00
28004;BME280;15330;51.234;6.754;2023-03-31T07:08:58;99217.19;;;10.52;100.00
28004;BME280;15330;51.234;6.754;2023-03-31T07:11:24;99213.31;;;10.54;100.00
28004;BME280;15330;51.234;6.754;2023-03-31T07:13:49;99211.66;;;10.60;100.00
28004;BME280;15330;51.234;6.754;2023-03-31T07:16:15;99211.06;;;10.64;100.00
28004;BME280;15330;51.234;6.754;2023-03-31T07:18:40;99199.59;;;10.77;100.00
28004;BME280;15330;51.234;6.754;2023-03-31T07:21:06;99203.69;;;10.86;100.00
28004;BME280;15330;51.234;6.754;2023-03-31T07:23:33;99202.88;;;10.86;100.00
28004;BME280;15330;51.234;6.754;2023-03-31T07:25:58;99197.53;;;10.86;100.00
28004;BME280;15330;51.234;6.754;2023-03-31T07:28:27;99194.25;;;10.97;100.00
28004;BME280;15330;51.234;6.754;2023-03-31T07:30:52;99199.78;;;10.95;100.00
28004;BME280;15330;51.234;6.754;2023-03-31T07:33:18;99200.63;;;11.02;100.00
28004;BME280;15330;51.234;6.754;2023-03-31T07:35:44;99192.78;;;11.14;100.00
28004;BME280;15330;51.234;6.754;2023-03-31T07:38:11;99193.19;;;11.24;100.00
28004;BME280;15330;51.234;6.754;2023-03-31T07:40:37;99184.53;;;11.42;100.00
28004;BME280;15330;51.234;6.754;2023-03-31T07:43:04;99178.94;;;11.63;100.00
28004;BME280;15330;51.234;6.754;2023-03-31T07:45:30;99183.06;;;11.72;100.00
28004;BME280;15330;51.234;6.754;2023-03-31T07:47:55;99187.34;;;11.87;100.00
28004;BME280;15330;51.234;6.754;2023-03-31T07:50:21;99182.00;;;11.87;100.00
28004;BME280;15330;51.234;6.754;2023-03-31T07:52:48;99186.53;;;11.86;100.00
28004;BME280;15330;51.234;6.754;2023-03-31T07:55:13;99173.78;;;11.82;100.00
28004;BME280;15330;51.234;6.754;2023-03-31T07:57:39;99179.53;;;11.79;100.00
28004;BME280;15330;51.234;6.754;2023-03-31T08:00:06;99162.84;;;11.83;100.00
28004;BME280;15330;51.234;6.754;2023-03-31T08:02:34;99162.84;;;11.83;100.00
28004;BME280;15330;51.234;6.754;2023-03-31T08:05:00;99171.22;;;12.00;100.00
28004;BME280;15330;51.234;6.754;2023-03-31T08:07:26;99164.84;;;12.01;100.00
28004;BME280;15330;51.234;6.754;2023-03-31T08:09:55;99172.88;;;12.01;100.00
28004;BME280;15330;51.234;6.754;2023-03-31T08:12:21;99172.47;;;11.97;100.00
28004;BME280;15330;51.234;6.754;2023-03-31T08:14:46;99171.69;;;11.90;100.00
28004;BME280;15330;51.234;6.754;2023-03-31T08:17:12;99168.78;;;11.92;100.00
28004;BME280;15330;51.234;6.754;2023-03-31T08:19:37;99169.63;;;11.92;100.00
28004;BME280;15330;51.234;6.754;2023-03-31T08:22:03;99172.88;;;11.94;100.00
28004;BME280;15330;51.234;6.754;2023-03-31T08:24:28;99171.69;;;11.90;100.00
28004;BME280;15330;51.234;6.754;2023-03-31T08:26:53;99169.19;;;11.95;100.00
28004;BME280;15330;51.234;6.754;2023-03-31T08:29:19;99167.94;;;11.98;100.00
28004;BME280;15330;51.234;6.754;2023-03-31T08:31:44;99159.28;;;12.02;100.00
28004;BME280;15330;51.234;6.754;2023-03-31T08:34:13;99154.66;;;12.16;100.00
28004;BME280;15330;51.234;6.754;2023-03-31T08:36:38;99160.81;;;12.23;100.00
28004;BME280;15330;51.234;6.754;2023-03-31T08:39:04;99156.66;;;12.27;100.00
28004;BME280;15330;51.234;6.754;2023-03-31T08:41:48;99160.16;;;12.34;100.00
28004;BME280;15330;51.234;6.754;2023-03-31T08:44:21;99160.50;;;12.44;100.00
28004;BME280;15330;51.234;6.754;2023-03-31T08:46:52;99149.94;;;12.49;100.00
28004;BME280;15330;51.234;6.754;2023-03-31T08:49:20;99153.56;;;12.62;99.14
28004;BME280;15330;51.234;6.754;2023-03-31T08:51:49;99145.09;;;12.90;97.12
28004;BME280;15330;51.234;6.754;2023-03-31T08:54:22;99144.44;;;13.44;96.64
28004;BME280;15330;51.234;6.754;2023-03-31T08:56:50;99141.03;;;13.55;94.71
28004;BME280;15330;51.234;6.754;2023-03-31T08:59:32;99136.84;;;13.59;93.51
28004;BME280;15330;51.234;6.754;2023-03-31T09:02:04;99136.09;;;13.70;93.07
28004;BME280;15330;51.234;6.754;2023-03-31T09:05:01;99130.31;;;14.03;92.14
28004;BME280;15330;51.234;6.754;2023-03-31T09:07:53;99132.38;;;13.89;92.38
28004;BME280;15330;51.234;6.754;2023-03-31T09:13:22;99131.53;;;13.34;94.30
28004;BME280;15330;51.234;6.754;2023-03-31T09:16:01;99140.88;;;13.00;95.54
28004;BME280;15330;51.234;6.754;2023-03-31T09:18:31;99132.91;;;12.94;96.34
28004;BME280;15330;51.234;6.754;2023-03-31T09:21:17;99115.47;;;13.03;96.36
28004;BME280;15330;51.234;6.754;2023-03-31T09:23:52;99113.59;;;13.03;97.16
28004;BME280;15330;51.234;6.754;2023-03-31T09:26:26;99117.34;;;13.02;95.03
28004;BME280;15330;51.234;6.754;2023-03-31T09:28:58;99109.13;;;12.97;95.00
28004;BME280;15330;51.234;6.754;2023-03-31T09:31:25;99124.75;;;13.07;93.88
28004;BME280;15330;51.234;6.754;2023-03-31T09:33:55;99099.28;;;13.09;92.50
28004;BME280;15330;51.234;6.754;2023-03-31T09:36:23;99101.75;;;13.36;92.54
28004;BME280;15330;51.234;6.754;2023-03-31T09:38:49;99105.94;;;13.50;91.93
28004;BME280;15330;51.234;6.754;2023-03-31T09:41:16;99088.53;;;13.89;90.63
28004;BME280;15330;51.234;6.754;2023-03-31T09:43:43;99096.06;;;14.70;86.19
28004;BME280;15330;51.234;6.754;2023-03-31T09:46:30;99085.31;;;13.99;87.29
28004;BME280;15330;51.234;6.754;2023-03-31T09:49:02;99090.19;;;14.02;88.20
28004;BME280;15330;51.234;6.754;2023-03-31T09:51:33;99092.28;;;13.70;88.81
28004;BME280;15330;51.234;6.754;2023-03-31T09:54:12;99089.75;;;13.56;89.81
28004;BME280;15330;51.234;6.754;2023-03-31T09:56:48;99088.34;;;13.11;88.86
28004;BME280;15330;51.234;6.754;2023-03-31T09:59:18;99100.69;;;12.94;89.77
28004;BME280;15330;51.234;6.754;2023-03-31T10:01:46;99090.59;;;12.89;90.64
28004;BME280;15330;51.234;6.754;2023-03-31T12:15:40;99022.84;;;13.37;90.10
28004;BME280;15330;51.234;6.754;2023-03-31T12:18:12;99027.00;;;13.14;93.69
28004;BME280;15330;51.234;6.754;2023-03-31T12:20:41;99011.22;;;12.81;98.12
28004;BME280;15330;51.234;6.754;2023-03-31T12:23:16;99005.03;;;12.81;98.30
28004;BME280;15330;51.234;6.754;2023-03-31T12:25:48;99018.00;;;12.84;98.90
28004;BME280;15330;51.234;6.754;2023-03-31T12:28:17;99011.97;;;12.88;98.23
28004;BME280;15330;51.234;6.754;2023-03-31T12:30:45;99001.09;;;13.02;98.89
28004;BME280;15330;51.234;6.754;2023-03-31T12:33:30;99004.34;;;13.29;97.75
28004;BME280;15330;51.234;6.754;2023-03-31T12:49:51;98973.31;;;14.04;86.19
28004;BME280;15330;51.234;6.754;2023-03-31T12:57:30;98961.50;;;13.93;82.39
28004;BME280;15330;51.234;6.754;2023-03-31T13:00:21;98967.34;;;13.90;83.63
28004;BME280;15330;51.234;6.754;2023-03-31T13:02:47;98973.34;;;13.74;85.34
28004;BME280;15330;51.234;6.754;2023-03-31T13:08:01;98963.44;;;13.75;86.36
28004;BME280;15330;51.234;6.754;2023-03-31T13:10:29;98965.81;;;13.94;86.08
28004;BME280;15330;51.234;6.754;2023-03-31T13:13:03;98960.59;;;14.00;84.48
28004;BME280;15330;51.234;6.754;2023-03-31T13:15:30;98949.16;;;14.16;83.23
28004;BME280;15330;51.234;6.754;2023-03-31T13:18:01;98954.91;;;14.19;80.92
28004;BME280;15330;51.234;6.754;2023-03-31T13:20:38;98955.97;;;14.30;79.71
28004;BME280;15330;51.234;6.754;2023-03-31T13:33:13;98948.16;;;14.40;78.12
28004;BME280;15330;51.234;6.754;2023-03-31T13:35:43;98945.91;;;14.37;78.16
28004;BME280;15330;51.234;6.754;2023-03-31T13:41:12;98945.56;;;14.80;79.00
28004;BME280;15330;51.234;6.754;2023-03-31T13:46:54;98930.34;;;14.86;76.54
28004;BME280;15330;51.234;6.754;2023-03-31T13:49:43;98934.34;;;14.95;77.01
28004;BME280;15330;51.234;6.754;2023-03-31T13:52:12;98928.97;;;14.72;77.13
28004;BME280;15330;51.234;6.754;2023-03-31T14:00:29;98915.81;;;14.87;76.09
28004;BME280;15330;51.234;6.754;2023-03-31T14:08:56;98910.38;;;14.70;77.33
28004;BME280;15330;51.234;6.754;2023-03-31T14:11:27;98873.06;;;14.50;76.09
28004;BME280;15330;51.234;6.754;2023-03-31T14:16:34;98909.69;;;14.51;75.25
28004;BME280;15330;51.234;6.754;2023-03-31T14:21:39;98920.00;;;14.43;74.78
28004;BME280;15330;51.234;6.754;2023-03-31T14:26:47;98897.63;;;14.30;74.79
28004;BME280;15330;51.234;6.754;2023-03-31T14:29:42;98881.81;;;14.22;74.52
28004;BME280;15330;51.234;6.754;2023-03-31T14:32:26;98890.13;;;14.21;75.04
28004;BME280;15330;51.234;6.754;2023-03-31T14:37:25;98880.75;;;14.23;75.93
28004;BME280;15330;51.234;6.754;2023-03-31T14:39:54;98874.31;;;14.36;75.94
28004;BME280;15330;51.234;6.754;2023-03-31T14:42:41;98887.78;;;14.24;76.39
28004;BME280;15330;51.234;6.754;2023-03-31T14:47:42;98904.56;;;13.85;80.93
28004;BME280;15330;51.234;6.754;2023-03-31T14:50:17;98913.66;;;13.72;84.39
28004;BME280;15330;51.234;6.754;2023-03-31T14:52:47;98911.47;;;13.51;86.87
28004;BME280;15330;51.234;6.754;2023-03-31T14:55:14;98924.75;;;13.34;88.72
28004;BME280;15330;51.234;6.754;2023-03-31T14:57:42;98930.88;;;13.23;90.57
28004;BME280;15330;51.234;6.754;2023-03-31T15:00:13;98928.09;;;12.93;93.78
28004;BME280;15330;51.234;6.754;2023-03-31T15:02:42;98938.75;;;12.63;98.95
28004;BME280;15330;51.234;6.754;2023-03-31T15:07:58;98962.66;;;12.22;100.00
28004;BME280;15330;51.234;6.754;2023-03-31T15:10:30;98964.94;;;12.18;100.00
28004;BME280;15330;51.234;6.754;2023-03-31T15:12:57;98956.19;;;12.04;100.00
28004;BME280;15330;51.234;6.754;2023-03-31T15:15:23;98942.84;;;11.98;100.00
28004;BME280;15330;51.234;6.754;2023-03-31T15:17:48;98930.94;;;11.94;100.00
28004;BME280;15330;51.234;6.754;2023-03-31T15:20:26;98928.00;;;11.95;100.00
28004;BME280;15330;51.234;6.754;2023-03-31T15:22:53;98931.09;;;11.99;100.00
28004;BME280;15330;51.234;6.754;2023-03-31T15:25:20;98946.84;;;12.13;100.00
28004;BME280;15330;51.234;6.754;2023-03-31T15:27:52;98939.06;;;12.05;100.00
28004;BME280;15330;51.234;6.754;2023-03-31T15:30:22;98932.19;;;11.91;100.00
28004;BME280;15330;51.234;6.754;2023-03-31T15:32:48;98921.41;;;11.98;100.00
28004;BME280;15330;51.234;6.754;2023-03-31T15:35:33;98920.38;;;11.99;100.00
28004;BME280;15330;51.234;6.754;2023-03-31T15:38:03;98913.69;;;12.08;100.00
28004;BME280;15330;51.234;6.754;2023-03-31T15:40:37;98909.38;;;12.07;100.00
28004;BME280;15330;51.234;6.754;2023-03-31T15:43:13;98904.00;;;12.07;100.00
28004;BME280;15330;51.234;6.754;2023-03-31T15:45:49;98908.00;;;11.98;100.00
28004;BME280;15330;51.234;6.754;2023-03-31T15:48:19;98904.84;;;12.07;100.00
28004;BME280;15330;51.234;6.754;2023-03-31T15:50:45;98915.19;;;12.04;100.00
28004;BME280;15330;51.234;6.754;2023-03-31T15:53:31;98906.03;;;12.11;100.00
28004;BME280;15330;51.234;6.754;2023-03-31T15:55:59;98893.91;;;12.09;100.00
28004;BME280;15330;51.234;6.754;2023-03-31T15:58:54;98904.03;;;12.25;100.00
28004;BME280;15330;51.234;6.754;2023-03-31T16:01:21;98914.22;;;12.17;100.00
28004;BME280;15330;51.234;6.754;2023-03-31T16:03:47;98902.16;;;12.07;100.00
28004;BME280;15330;51.234;6.754;2023-03-31T16:06:36;98909.03;;;12.22;100.00
28004;BME280;15330;51.234;6.754;2023-03-31T16:09:08;98907.91;;;12.11;100.00
28004;BME280;15330;51.234;6.754;2023-03-31T16:11:41;98918.28;;;12.26;100.00
28004;BME280;15330;51.234;6.754;2023-03-31T16:14:29;98906.69;;;12.32;100.00
28004;BME280;15330;51.234;6.754;2023-03-31T16:17:14;98906.69;;;12.32;100.00
28004;BME280;15330;51.234;6.754;2023-03-31T16:19:51;98916.81;;;12.30;100.00
28004;BME280;15330;51.234;6.754;2023-03-31T16:22:21;98910.00;;;12.27;100.00
28004;BME280;15330;51.234;6.754;2023-03-31T16:24:48;98911.72;;;12.22;100.00
28004;BME280;15330;51.234;6.754;2023-03-31T16:27:13;98903.28;;;12.18;100.00
28004;BME280;15330;51.234;6.754;2023-03-31T16:29:39;98897.94;;;12.18;100.00
28004;BME280;15330;51.234;6.754;2023-03-31T16:32:15;98902.78;;;12.28;100.00
28004;BME280;15330;51.234;6.754;2023-03-31T16:34:54;98907.72;;;12.31;100.00
28004;BME280;15330;51.234;6.754;2023-03-31T16:37:19;98905.16;;;12.18;100.00
28004;BME280;15330;51.234;6.754;2023-03-31T16:39:45;98898.31;;;12.22;100.00
28004;BME280;15330;51.234;6.754;2023-03-31T16:42:10;98905.53;;;12.21;100.00
28004;BME280;15330;51.234;6.754;2023-03-31T16:44:36;98888.53;;;12.09;100.00
28004;BME280;15330;51.234;6.754;2023-03-31T16:47:01;98895.53;;;12.10;100.00
28004;BME280;15330;51.234;6.754;2023-03-31T16:49:26;98899.75;;;11.99;100.00
28004;BME280;15330;51.234;6.754;2023-03-31T16:51:52;98905.44;;;12.09;100.00
28004;BME280;15330;51.234;6.754;2023-03-31T16:54:17;98888.28;;;11.92;100.00
28004;BME280;15330;51.234;6.754;2023-03-31T16:56:43;98890.63;;;11.82;100.00
28004;BME280;15330;51.234;6.754;2023-03-31T16:59:08;98881.44;;;11.96;100.00
28004;BME280;15330;51.234;6.754;2023-03-31T17:01:34;98882.34;;;12.08;100.00
28004;BME280;15330;51.234;6.754;2023-03-31T17:04:00;98876.78;;;12.10;100.00
28004;BME280;15330;51.234;6.754;2023-03-31T17:06:25;98891.94;;;11.98;99.53
28004;BME280;15330;51.234;6.754;2023-03-31T17:08:52;98896.91;;;12.19;99.71
28004;BME280;15330;51.234;6.754;2023-03-31T17:11:17;98885.56;;;12.17;99.14
28004;BME280;15330;51.234;6.754;2023-03-31T17:13:43;98891.81;;;12.11;99.70
28004;BME280;15330;51.234;6.754;2023-03-31T17:16:09;98905.94;;;12.00;100.00
28004;BME280;15330;51.234;6.754;2023-03-31T17:18:35;98897.69;;;12.01;100.00
28004;BME280;15330;51.234;6.754;2023-03-31T17:21:06;98903.00;;;11.76;100.00
28004;BME280;15330;51.234;6.754;2023-03-31T17:23:31;98898.81;;;11.87;100.00